Boars Hill, United Kingdom
Current Conditions -  °F | °C
As of 11:20 AM on Wednesday 26 Nov 2014 (Local Time) from EGTK Reporting Station
Haze Haze  
Wind Chill: 45°   Ceiling: 200
Heat Index: 45°   Visibility: 1.3mi
Dew Point: 45°   Wind: 1mph
Humidity: 100%   Direction: NA
Pressure: 29.85"   Gusts: NA
Location:  51.72°N, 1.29°W
Report Text: EGTK 261120Z VRB01KT 2100 BR BKN002 OVC003 07/07 Q1011
Loading
Personal Weather Stations






























Interactive Weather Map New forecast layout! Learn more

10-Day Weather Forecast

Advertisements
Track Severe Weather on mobile